createdAt,value
2023-04-25T00:00:10.192Z,15.52
2023-04-25T00:04:15.155Z,9.52
2023-04-25T00:08:18.232Z,12.50
2023-04-25T00:12:22.601Z,13.90
2023-04-25T00:16:28.048Z,15.13
2023-04-25T00:20:31.164Z,16.63
2023-04-25T00:24:34.004Z,10.80
2023-04-25T00:28:36.944Z,16.20
2023-04-25T00:32:41.317Z,13.82
2023-04-25T00:36:44.145Z,13.43
2023-04-25T00:40:46.919Z,12.10
2023-04-25T00:44:49.979Z,14.80
2023-04-25T00:48:54.439Z,14.63
2023-04-25T00:52:57.398Z,17.40
2023-04-25T00:57:01.874Z,17.73
2023-04-25T01:01:04.932Z,14.98
2023-04-25T02:09:46.466Z,19.15
2023-04-25T02:13:49.733Z,17.63
2023-04-25T02:18:02.053Z,19.48
2023-04-25T02:22:04.887Z,21.17
2023-04-25T02:26:08.965Z,18.40
2023-04-25T02:30:13.014Z,19.80
2023-04-25T02:34:16.240Z,22.80
2023-04-25T02:38:19.022Z,22.02
2023-04-25T02:42:23.192Z,19.77
2023-04-25T02:46:38.410Z,16.95
2023-04-25T02:50:42.587Z,19.40
2023-04-25T02:54:45.639Z,22.15
2023-04-25T02:58:51.097Z,23.80
2023-04-25T03:02:54.300Z,22.20
2023-04-25T03:06:57.897Z,22.83
2023-04-25T03:11:03.465Z,18.25
2023-04-25T03:15:12.145Z,26.05
2023-04-25T03:19:16.916Z,24.85
2023-04-25T03:23:23.931Z,23.52
2023-04-25T03:27:35.104Z,16.67
2023-04-25T03:31:40.778Z,21.00
2023-04-25T03:35:44.603Z,22.30
2023-04-25T03:39:48.015Z,19.83
2023-04-25T03:48:12.048Z,17.35
2023-04-25T03:52:21.232Z,19.63
2023-04-25T03:56:30.271Z,22.75
2023-04-25T04:00:40.158Z,19.50
2023-04-25T04:04:48.125Z,18.55
2023-04-25T04:08:51.505Z,19.02
2023-04-25T04:13:00.890Z,18.00
2023-04-25T04:17:03.918Z,18.73
2023-04-25T04:21:11.806Z,17.15
2023-04-25T04:25:17.944Z,16.42
2023-04-25T04:29:43.958Z,17.67
2023-04-25T04:34:02.591Z,15.35
2023-04-25T04:38:07.710Z,18.58
2023-04-25T04:42:13.613Z,20.92
2023-04-25T04:46:32.190Z,20.42
2023-04-25T04:51:07.449Z,16.42
2023-04-25T04:55:47.164Z,18.70
2023-04-25T05:00:11.902Z,21.00
2023-04-25T05:04:46.617Z,14.52
2023-04-25T05:09:08.131Z,16.35
2023-04-25T05:13:47.888Z,15.85
2023-04-25T05:18:08.475Z,16.55
2023-04-25T05:22:21.473Z,14.88
2023-04-25T05:26:36.068Z,17.65
2023-04-25T05:30:51.700Z,16.80
2023-04-25T05:34:57.960Z,18.90
2023-04-25T05:39:05.677Z,17.33
2023-04-25T05:43:46.017Z,18.90
2023-04-25T05:48:10.380Z,20.23
2023-04-25T05:52:34.780Z,16.17
2023-04-25T05:56:41.600Z,20.02
2023-04-25T06:00:45.447Z,18.08
2023-04-25T06:04:53.255Z,15.95
2023-04-25T06:08:56.486Z,20.30
2023-04-25T06:13:00.102Z,17.67
2023-04-25T06:17:07.416Z,16.15
2023-04-25T06:21:12.366Z,18.77
2023-04-25T06:25:15.620Z,19.08
2023-04-25T06:29:18.489Z,16.77
2023-04-25T06:33:22.345Z,18.77
2023-04-25T06:37:27.397Z,20.65
2023-04-25T06:41:30.480Z,15.55
2023-04-25T06:45:38.015Z,15.15
2023-04-25T06:49:41.174Z,20.90
2023-04-25T06:53:47.531Z,13.80
2023-04-25T06:58:01.265Z,18.58
2023-04-25T07:02:30.324Z,14.90
2023-04-25T07:06:34.465Z,18.83
2023-04-25T07:10:38.637Z,15.65
2023-04-25T07:14:41.818Z,19.08
2023-04-25T07:18:46.097Z,18.05
2023-04-25T07:22:49.145Z,12.98
2023-04-25T07:26:53.347Z,17.60
2023-04-25T07:31:03.441Z,12.55
2023-04-25T07:35:09.336Z,14.40
2023-04-25T07:39:13.016Z,18.60
2023-04-25T07:43:17.922Z,16.55
2023-04-25T07:47:33.921Z,15.13
2023-04-25T07:51:37.242Z,19.55
2023-04-25T07:55:45.620Z,13.18
2023-04-25T07:59:53.642Z,16.85
2023-04-25T08:03:57.709Z,11.85
2023-04-25T08:08:11.012Z,11.13
2023-04-25T08:12:14.126Z,16.00
2023-04-25T08:16:18.722Z,14.95
2023-04-25T08:20:22.956Z,16.70
2023-04-25T08:24:29.465Z,16.38
2023-04-25T08:28:36.921Z,10.55
2023-04-25T08:32:43.404Z,12.77
2023-04-25T08:37:17.406Z,12.98
2023-04-25T08:41:29.015Z,15.60
2023-04-25T08:45:34.576Z,9.13
2023-04-25T08:49:45.720Z,7.25
2023-04-25T08:54:30.885Z,10.23
2023-04-25T08:58:16.070Z,10.20
2023-04-25T09:02:22.080Z,10.05
2023-04-25T09:06:34.481Z,11.65
2023-04-25T09:10:41.328Z,8.07
2023-04-25T09:14:44.868Z,9.35
2023-04-25T09:19:03.086Z,9.30
2023-04-25T09:23:09.738Z,6.70
2023-04-25T09:27:20.454Z,8.25
2023-04-25T09:31:27.717Z,9.18
2023-04-25T09:35:41.383Z,5.68
2023-04-25T09:39:51.998Z,7.03
2023-04-25T09:44:01.071Z,7.43
2023-04-25T09:48:13.731Z,6.60
2023-04-25T09:52:25.317Z,10.95
2023-04-25T09:56:56.997Z,10.88
2023-04-25T10:01:03.069Z,6.50
2023-04-25T10:05:19.059Z,5.38
2023-04-25T10:09:25.470Z,5.72
2023-04-25T10:13:35.296Z,5.78
2023-04-25T10:17:42.508Z,6.47
2023-04-25T10:21:53.708Z,7.07
2023-04-25T10:25:59.375Z,5.28
2023-04-25T10:30:12.431Z,8.88
2023-04-25T10:34:18.201Z,7.25
2023-04-25T10:38:24.651Z,6.45
2023-04-25T10:42:29.957Z,6.85
2023-04-25T10:46:38.783Z,6.28
2023-04-25T10:50:42.351Z,6.50
2023-04-25T11:00:56.697Z,8.27
2023-04-25T11:05:36.538Z,5.32
2023-04-25T11:25:24.046Z,6.70
2023-04-25T11:29:53.463Z,6.07
2023-04-25T11:33:58.522Z,5.30
2023-04-25T11:38:01.786Z,6.20
2023-04-25T11:42:08.084Z,7.97
2023-04-25T11:46:14.099Z,6.47
2023-04-25T11:50:16.860Z,5.20
2023-04-25T11:54:19.597Z,5.93
2023-04-25T11:58:22.507Z,5.50
2023-04-25T12:02:29.642Z,4.97
2023-04-25T12:06:32.733Z,6.10
2023-04-25T12:10:40.568Z,6.20
2023-04-25T12:15:09.720Z,7.35
2023-04-25T12:19:16.187Z,4.15
2023-04-25T12:23:19.206Z,5.78
2023-04-25T12:27:22.185Z,6.70
2023-04-25T12:31:24.944Z,5.38
2023-04-25T12:35:29.209Z,5.28
2023-04-25T12:39:32.002Z,4.57
2023-04-25T12:43:35.132Z,3.83
2023-04-25T12:47:38.174Z,6.60
2023-04-25T12:51:42.447Z,4.20
2023-04-25T12:55:46.902Z,3.95
2023-04-25T12:59:49.647Z,4.75
2023-04-25T13:03:53.000Z,2.45
2023-04-25T13:07:57.156Z,6.00
2023-04-25T13:12:00.054Z,4.50
2023-04-25T13:16:02.978Z,4.88
2023-04-25T13:20:09.552Z,3.60
2023-04-25T13:24:13.929Z,5.35
2023-04-25T13:28:16.964Z,4.20
2023-04-25T13:32:19.727Z,5.25
2023-04-25T13:36:22.626Z,5.63
2023-04-25T13:40:27.783Z,5.20
2023-04-25T13:44:30.675Z,5.65
2023-04-25T13:48:33.883Z,8.70
2023-04-25T13:52:38.837Z,6.60
2023-04-25T13:56:43.565Z,4.90
2023-04-25T14:00:47.689Z,4.55
2023-04-25T14:04:50.551Z,2.72
2023-04-25T14:08:53.334Z,3.65
2023-04-25T14:12:57.436Z,5.72
2023-04-25T14:17:00.175Z,3.92
2023-04-25T14:21:02.901Z,2.22
2023-04-25T14:25:06.682Z,3.70
2023-04-25T14:29:12.714Z,5.10
2023-04-25T14:33:15.903Z,6.30
2023-04-25T14:37:18.723Z,5.13
2023-04-25T14:41:22.240Z,4.32
2023-04-25T14:45:26.777Z,2.28
2023-04-25T14:49:29.953Z,2.78
2023-04-25T14:53:33.404Z,4.60
2023-04-25T14:57:38.943Z,2.95
2023-04-25T15:01:43.159Z,2.80
2023-04-25T15:05:46.180Z,3.92
2023-04-25T15:09:49.735Z,5.95
2023-04-25T15:13:52.918Z,3.03
2023-04-25T15:17:59.251Z,4.60
2023-04-25T15:22:02.455Z,5.32
2023-04-25T15:26:05.528Z,4.97
2023-04-25T15:30:11.775Z,4.07
2023-04-25T15:34:15.851Z,8.32
2023-04-25T15:38:18.691Z,3.45
2023-04-25T15:42:21.478Z,4.88
2023-04-25T15:46:24.317Z,4.47
2023-04-25T15:50:28.469Z,4.05
2023-04-25T15:54:31.284Z,3.50
2023-04-25T15:58:34.265Z,4.82
2023-04-25T16:02:37.480Z,2.83
2023-04-25T16:06:42.438Z,4.20
2023-04-25T16:10:45.221Z,3.08
2023-04-25T16:14:48.219Z,3.85
2023-04-25T16:18:51.075Z,4.30
2023-04-25T16:22:55.852Z,2.83
2023-04-25T16:26:59.026Z,5.40
2023-04-25T16:31:02.062Z,4.65
2023-04-25T16:35:05.099Z,4.97
2023-04-25T16:39:09.628Z,4.97
2023-04-25T16:43:12.495Z,2.63
2023-04-25T16:47:19.481Z,5.70
2023-04-25T16:51:22.941Z,3.38
2023-04-25T16:55:27.063Z,3.92
2023-04-25T16:59:29.829Z,3.47
2023-04-25T17:03:34.846Z,4.32
2023-04-25T17:07:38.347Z,3.83
2023-04-25T17:11:42.496Z,3.65
2023-04-25T17:15:45.358Z,5.03
2023-04-25T17:19:48.456Z,5.22
2023-04-25T17:23:51.437Z,5.45
2023-04-25T17:27:55.784Z,3.65
2023-04-25T17:31:59.028Z,2.92
2023-04-25T17:36:04.423Z,4.40
2023-04-25T17:40:11.932Z,3.33
2023-04-25T17:44:16.143Z,3.40
2023-04-25T17:48:19.213Z,3.90
2023-04-25T17:52:23.088Z,3.78
2023-04-25T17:56:27.503Z,6.43
2023-04-25T18:00:36.401Z,5.50
2023-04-25T18:04:39.488Z,5.43
2023-04-25T18:08:42.454Z,3.90
2023-04-25T18:12:45.532Z,6.60
2023-04-25T18:16:51.610Z,6.25
2023-04-25T18:20:54.993Z,4.93
2023-04-25T18:24:57.735Z,5.47
2023-04-25T18:29:01.450Z,4.55
2023-04-25T18:33:05.837Z,3.97
2023-04-25T18:37:08.850Z,4.13
2023-04-25T18:45:19.120Z,4.50
2023-04-25T18:49:24.176Z,3.70
2023-04-25T18:53:27.790Z,4.85
2023-04-25T18:57:30.854Z,5.10
2023-04-25T19:01:34.351Z,4.47
2023-04-25T19:05:39.148Z,3.88
2023-04-25T19:09:42.448Z,5.93
2023-04-25T19:13:46.032Z,4.90
2023-04-25T19:17:49.070Z,4.95
2023-04-25T19:21:54.104Z,5.97
2023-04-25T19:25:57.150Z,7.32
2023-04-25T19:30:07.957Z,8.13
2023-04-25T19:34:16.083Z,6.47
2023-04-25T19:38:24.704Z,6.97
2023-04-25T19:42:27.722Z,9.07
2023-04-25T19:46:31.158Z,5.22
2023-04-25T19:50:34.547Z,5.47
2023-04-25T19:54:38.872Z,7.00
2023-04-25T19:58:46.368Z,3.72
2023-04-25T20:03:01.201Z,4.60
2023-04-25T20:07:14.648Z,4.43
2023-04-25T20:11:23.188Z,6.82
2023-04-25T20:15:26.287Z,3.10
2023-04-25T20:19:29.049Z,4.18
2023-04-25T20:23:31.898Z,4.63
2023-04-25T20:27:37.802Z,5.53
2023-04-25T20:31:40.705Z,3.30
2023-04-25T20:35:43.917Z,8.40
2023-04-25T20:39:46.859Z,8.00
2023-04-25T20:43:53.155Z,6.30
2023-04-25T20:47:56.146Z,6.45
2023-04-25T20:51:59.133Z,10.25
2023-04-25T20:56:02.657Z,7.38
2023-04-25T21:00:17.254Z,5.63
2023-04-25T21:04:27.466Z,7.25
2023-04-25T21:08:33.128Z,3.55
2023-04-25T21:12:36.164Z,6.32
2023-04-25T21:16:49.805Z,2.58
2023-04-25T21:20:53.101Z,5.00
2023-04-25T21:24:57.444Z,6.32
2023-04-25T21:29:00.214Z,3.47
2023-04-25T21:33:04.907Z,5.43
2023-04-25T21:37:07.740Z,5.88
2023-04-25T21:41:10.540Z,8.15
2023-04-25T21:45:13.467Z,6.60
2023-04-25T21:49:17.528Z,4.90
2023-04-25T21:53:20.322Z,6.57
2023-04-25T21:57:23.276Z,6.20
2023-04-25T22:01:26.823Z,5.20
2023-04-25T22:05:31.236Z,4.50
2023-04-25T22:09:43.854Z,5.88
2023-04-25T22:13:54.481Z,5.18
2023-04-25T22:17:57.785Z,9.50
2023-04-25T22:22:02.572Z,5.57
2023-04-25T22:26:06.106Z,8.30
2023-04-25T22:30:10.289Z,8.30
2023-04-25T22:34:13.810Z,6.60
2023-04-25T22:38:18.005Z,7.13
2023-04-25T22:42:20.745Z,8.38
2023-04-25T22:46:23.667Z,10.80
2023-04-25T22:50:27.118Z,10.98
2023-04-25T22:54:31.233Z,5.53
2023-04-25T22:58:34.048Z,7.25
2023-04-25T23:02:37.109Z,6.53
2023-04-25T23:06:40.503Z,6.32
2023-04-25T23:10:44.613Z,8.93
2023-04-25T23:14:50.227Z,7.43
2023-04-25T23:18:53.382Z,7.93
2023-04-25T23:22:56.799Z,9.45
2023-04-25T23:27:01.832Z,6.43
2023-04-25T23:31:06.009Z,6.32
2023-04-25T23:35:09.993Z,5.70
2023-04-25T23:39:14.160Z,7.93
2023-04-25T23:43:28.012Z,7.35
2023-04-25T23:47:37.601Z,6.50
2023-04-25T23:51:41.063Z,7.05
2023-04-25T23:55:44.176Z,8.85
2023-04-25T23:59:49.818Z,8.00
